createdAt,value
2023-05-10T00:00:02.118Z,99509.85
2023-05-10T00:03:01.675Z,99510.30
2023-05-10T00:05:29.888Z,99508.58
2023-05-10T00:07:58.342Z,99510.48
2023-05-10T00:10:26.616Z,99506.76
2023-05-10T00:12:54.999Z,99505.83
2023-05-10T00:15:23.609Z,99504.86
2023-05-10T00:17:52.311Z,99501.65
2023-05-10T00:20:20.782Z,99501.98
2023-05-10T00:22:49.180Z,99502.31
2023-05-10T00:25:17.608Z,99501.82
2023-05-10T00:27:45.809Z,99500.89
2023-05-10T00:30:14.837Z,99498.33
2023-05-10T00:32:44.655Z,99496.44
2023-05-10T00:35:13.165Z,99494.02
2023-05-10T00:37:41.732Z,99492.54
2023-05-10T00:40:10.594Z,99494.77
2023-05-10T00:42:38.847Z,99490.31
2023-05-10T00:45:09.776Z,99485.57
2023-05-10T00:47:38.693Z,99487.20
2023-05-10T00:50:07.708Z,99485.00
2023-05-10T00:52:36.184Z,99486.67
2023-05-10T00:55:05.123Z,99485.51
2023-05-10T00:57:33.724Z,99483.30
2023-05-10T01:00:04.192Z,99478.42
2023-05-10T01:02:32.543Z,99476.98
2023-05-10T01:05:02.816Z,99471.35
2023-05-10T01:07:31.415Z,99467.80
2023-05-10T01:10:00.020Z,99470.81
2023-05-10T01:12:28.539Z,99466.50
2023-05-10T01:14:56.937Z,99463.62
2023-05-10T01:17:25.792Z,99462.70
2023-05-10T01:19:54.118Z,99459.00
2023-05-10T01:23:20.080Z,99458.69
2023-05-10T01:25:48.263Z,99460.38
2023-05-10T01:28:32.233Z,99457.32
2023-05-10T01:31:18.694Z,99456.88
2023-05-10T01:34:08.939Z,99455.91
2023-05-10T01:36:49.411Z,99452.48
2023-05-10T01:39:46.288Z,99450.71
2023-05-10T01:42:30.605Z,99451.28
2023-05-10T01:45:20.683Z,99449.92
2023-05-10T01:47:57.899Z,99452.07
2023-05-10T01:50:31.289Z,99453.14
2023-05-10T01:53:03.586Z,99454.23
2023-05-10T01:55:37.069Z,99451.45
2023-05-10T01:58:15.446Z,99448.48
2023-05-10T02:00:45.721Z,99449.27
2023-05-10T02:03:16.576Z,99454.75
2023-05-10T02:05:47.891Z,99450.06
2023-05-10T02:08:18.605Z,99446.91
2023-05-10T02:10:49.049Z,99447.60
2023-05-10T02:13:19.272Z,99443.39
2023-05-10T02:15:52.465Z,99440.96
2023-05-10T02:18:23.083Z,99438.65
2023-05-10T02:20:53.668Z,99434.00
2023-05-10T02:23:24.486Z,99432.61
2023-05-10T02:25:55.924Z,99431.95
2023-05-10T02:28:28.060Z,99431.35
2023-05-10T02:30:58.791Z,99431.23
2023-05-10T02:33:28.033Z,99431.26
2023-05-10T02:35:57.811Z,99431.08
2023-05-10T02:38:28.084Z,99429.50
2023-05-10T02:40:58.355Z,99428.27
2023-05-10T02:43:27.281Z,99425.40
2023-05-10T02:45:55.800Z,99425.26
2023-05-10T02:48:24.172Z,99421.14
2023-05-10T02:50:55.297Z,99424.52
2023-05-10T02:53:32.959Z,99422.05
2023-05-10T02:56:12.235Z,99424.69
2023-05-10T02:58:40.545Z,99422.80
2023-05-10T03:01:09.166Z,99420.35
2023-05-10T03:03:37.544Z,99421.09
2023-05-10T03:06:06.130Z,99420.42
2023-05-10T03:08:35.074Z,99419.45
2023-05-10T03:11:38.307Z,99417.20
2023-05-10T03:14:49.702Z,99418.65
2023-05-10T03:17:17.905Z,99420.77
2023-05-10T03:19:51.964Z,99417.20
2023-05-10T03:22:39.131Z,99419.70
2023-05-10T03:25:11.958Z,99422.77
2023-05-10T03:27:43.940Z,99419.38
2023-05-10T03:30:14.446Z,99417.95
2023-05-10T03:32:43.281Z,99418.38
2023-05-10T03:35:14.507Z,99415.06
2023-05-10T03:37:43.191Z,99416.21
2023-05-10T03:40:12.152Z,99415.55
2023-05-10T03:42:42.125Z,99410.75
2023-05-10T03:45:10.813Z,99408.05
2023-05-10T03:47:39.197Z,99410.47
2023-05-10T03:50:08.281Z,99409.58
2023-05-10T03:52:36.820Z,99407.05
2023-05-10T03:55:05.956Z,99404.20
2023-05-10T03:57:35.114Z,99412.27
2023-05-10T04:00:04.842Z,99411.69
2023-05-10T04:02:43.194Z,99409.44
2023-05-10T04:05:17.997Z,99408.39
2023-05-10T04:07:46.362Z,99410.76
2023-05-10T04:10:14.797Z,99411.34
2023-05-10T04:12:43.471Z,99410.71
2023-05-10T04:15:11.696Z,99406.52
2023-05-10T04:17:39.969Z,99406.55
2023-05-10T04:20:09.330Z,99409.00
2023-05-10T04:22:37.578Z,99408.59
2023-05-10T04:25:07.414Z,99402.86
2023-05-10T04:27:35.978Z,99404.45
2023-05-10T04:30:04.877Z,99404.25
2023-05-10T04:32:33.571Z,99406.95
2023-05-10T04:35:04.742Z,99409.29
2023-05-10T04:37:32.997Z,99411.86
2023-05-10T04:40:01.297Z,99409.99
2023-05-10T04:42:29.905Z,99406.04
2023-05-10T04:44:58.487Z,99401.84
2023-05-10T04:47:26.806Z,99403.54
2023-05-10T04:49:55.169Z,99399.55
2023-05-10T04:52:23.526Z,99396.34
2023-05-10T04:54:52.541Z,99392.55
2023-05-10T04:57:20.831Z,99393.80
2023-05-10T04:59:50.333Z,99392.09
2023-05-10T05:02:18.913Z,99392.64
2023-05-10T05:04:47.345Z,99394.86
2023-05-10T05:07:15.861Z,99391.52
2023-05-10T05:09:44.147Z,99389.30
2023-05-10T05:12:15.421Z,99388.50
2023-05-10T05:14:44.438Z,99392.75
2023-05-10T05:17:12.902Z,99391.61
2023-05-10T05:19:41.293Z,99390.69
2023-05-10T05:22:09.776Z,99388.94
2023-05-10T05:24:39.380Z,99387.98
2023-05-10T05:27:07.958Z,99389.90
2023-05-10T05:29:36.814Z,99388.63
2023-05-10T05:32:05.448Z,99390.19
2023-05-10T05:34:34.223Z,99384.98
2023-05-10T05:37:02.433Z,99383.59
2023-05-10T05:39:30.854Z,99382.70
2023-05-10T05:41:59.653Z,99385.95
2023-05-10T05:44:30.046Z,99387.77
2023-05-10T05:46:58.303Z,99385.58
2023-05-10T05:49:26.585Z,99385.98
2023-05-10T05:51:54.906Z,99385.68
2023-05-10T05:54:23.214Z,99387.45
2023-05-10T05:56:51.490Z,99390.98
2023-05-10T05:59:19.836Z,99387.10
2023-05-10T06:01:48.215Z,99385.52
2023-05-10T06:04:17.371Z,99384.52
2023-05-10T06:06:45.908Z,99383.20
2023-05-10T06:09:14.197Z,99385.33
2023-05-10T06:11:42.567Z,99383.70
2023-05-10T06:14:10.983Z,99385.37
2023-05-10T06:16:39.292Z,99384.46
2023-05-10T06:19:07.738Z,99379.65
2023-05-10T06:21:35.971Z,99380.05
2023-05-10T06:24:04.428Z,99379.70
2023-05-10T06:26:32.706Z,99376.13
2023-05-10T06:29:00.982Z,99379.71
2023-05-10T06:31:29.245Z,99378.02
2023-05-10T06:33:57.573Z,99380.33
2023-05-10T06:36:27.587Z,99381.71
2023-05-10T06:38:55.958Z,99384.12
2023-05-10T06:41:24.943Z,99385.15
2023-05-10T06:43:53.328Z,99380.48
2023-05-10T06:46:21.638Z,99379.23
2023-05-10T06:48:49.949Z,99379.06
2023-05-10T06:51:19.303Z,99380.87
2023-05-10T06:53:47.767Z,99382.30
2023-05-10T06:56:16.049Z,99382.22
2023-05-10T06:58:44.374Z,99383.36
2023-05-10T07:01:12.915Z,99384.11
2023-05-10T07:03:41.561Z,99386.06
2023-05-10T07:06:15.715Z,99385.05
2023-05-10T07:08:50.596Z,99386.81
2023-05-10T07:11:18.979Z,99380.52
2023-05-10T07:13:47.659Z,99378.09
2023-05-10T07:16:16.439Z,99380.15
2023-05-10T07:18:44.675Z,99379.55
2023-05-10T07:21:13.035Z,99383.31
2023-05-10T07:23:42.926Z,99380.01
2023-05-10T07:26:12.736Z,99386.07
2023-05-10T07:28:41.625Z,99383.31
2023-05-10T07:31:09.967Z,99381.63
2023-05-10T07:33:38.302Z,99382.16
2023-05-10T07:36:06.785Z,99385.05
2023-05-10T07:38:35.085Z,99381.77
2023-05-10T07:41:03.291Z,99377.11
2023-05-10T07:43:31.793Z,99375.95
2023-05-10T07:46:00.821Z,99372.70
2023-05-10T07:48:29.088Z,99373.36
2023-05-10T07:50:57.477Z,99376.77
2023-05-10T07:53:27.447Z,99373.29
2023-05-10T07:55:59.442Z,99367.86
2023-05-10T07:58:27.911Z,99369.33
2023-05-10T08:00:56.290Z,99370.95
2023-05-10T08:03:24.635Z,99368.70
2023-05-10T08:05:53.091Z,99366.56
2023-05-10T08:08:22.677Z,99369.48
2023-05-10T08:10:50.931Z,99368.33
2023-05-10T08:13:19.326Z,99366.48
2023-05-10T08:15:48.182Z,99363.71
2023-05-10T08:18:16.449Z,99361.58
2023-05-10T08:20:44.867Z,99359.96
2023-05-10T08:23:16.735Z,99359.52
2023-05-10T08:25:45.052Z,99359.34
2023-05-10T08:28:13.396Z,99355.99
2023-05-10T08:30:41.685Z,99356.95
2023-05-10T08:33:10.109Z,99361.83
2023-05-10T08:35:38.404Z,99365.30
2023-05-10T08:38:06.742Z,99361.31
2023-05-10T08:40:37.877Z,99361.57
2023-05-10T08:43:09.970Z,99359.02
2023-05-10T08:45:40.732Z,99360.13
2023-05-10T08:48:10.933Z,99358.44
2023-05-10T08:50:41.977Z,99351.44
2023-05-10T08:53:14.062Z,99354.48
2023-05-10T08:55:43.934Z,99354.21
2023-05-10T08:58:12.284Z,99357.98
2023-05-10T09:00:41.111Z,99359.54
2023-05-10T09:03:10.473Z,99356.23
2023-05-10T09:05:39.190Z,99358.80
2023-05-10T09:08:09.745Z,99355.76
2023-05-10T09:10:39.980Z,99358.46
2023-05-10T09:13:11.024Z,99359.10
2023-05-10T09:15:39.982Z,99359.04
2023-05-10T09:18:08.398Z,99356.29
2023-05-10T09:20:36.695Z,99348.68
2023-05-10T09:23:05.049Z,99348.52
2023-05-10T09:25:34.864Z,99350.84
2023-05-10T09:28:08.451Z,99354.00
2023-05-10T09:30:37.093Z,99350.84
2023-05-10T09:33:05.505Z,99344.52
2023-05-10T09:35:35.149Z,99341.59
2023-05-10T09:38:05.518Z,99343.46
2023-05-10T09:40:34.020Z,99341.98
2023-05-10T09:43:12.084Z,99347.55
2023-05-10T09:45:42.291Z,99356.17
2023-05-10T09:48:10.590Z,99350.00
2023-05-10T09:50:39.997Z,99347.50
2023-05-10T09:53:08.562Z,99344.62
2023-05-10T09:55:47.127Z,99342.71
2023-05-10T09:58:15.776Z,19866.98
2023-05-10T10:00:46.252Z,-1.00
2023-05-10T10:03:16.775Z,-1.00
2023-05-10T10:05:47.228Z,-1.00
2023-05-10T10:08:16.821Z,-1.00
2023-05-10T10:10:48.070Z,-1.00
2023-05-10T10:13:18.468Z,-1.00
2023-05-10T10:15:48.927Z,-1.00
2023-05-10T10:18:17.492Z,-1.00
2023-05-10T10:20:46.679Z,-1.00
2023-05-10T10:23:17.353Z,-1.00
2023-05-10T10:25:50.038Z,-1.00
2023-05-10T10:28:37.407Z,-1.00
2023-05-10T10:31:26.600Z,-1.00
2023-05-10T10:34:05.008Z,-1.00
2023-05-10T10:36:41.110Z,-1.00
2023-05-10T10:39:12.093Z,-1.00
2023-05-10T10:41:50.632Z,-1.00
2023-05-10T10:44:31.902Z,-1.00
2023-05-10T10:47:03.690Z,-1.00
2023-05-10T10:50:01.721Z,-1.00
2023-05-10T10:52:35.383Z,-1.00
2023-05-10T10:55:15.915Z,-1.00
2023-05-10T10:57:49.670Z,-1.00
2023-05-10T11:00:34.272Z,-1.00
2023-05-10T11:03:17.245Z,-1.00
2023-05-10T11:05:50.514Z,-1.00
2023-05-10T11:08:32.236Z,-1.00
2023-05-10T11:11:00.669Z,-1.00
2023-05-10T11:13:33.055Z,-1.00
2023-05-10T11:16:19.718Z,-1.00
2023-05-10T11:19:10.536Z,-1.00
2023-05-10T11:22:13.398Z,-1.00
2023-05-10T11:24:57.613Z,-1.00
2023-05-10T11:27:27.395Z,-1.00
2023-05-10T11:30:06.168Z,-1.00
2023-05-10T11:32:39.058Z,-1.00
2023-05-10T11:35:10.967Z,-1.00
2023-05-10T11:37:44.792Z,-1.00
2023-05-10T11:40:14.628Z,-1.00
2023-05-10T11:42:43.433Z,-1.00
2023-05-10T11:45:13.526Z,-1.00
2023-05-10T11:47:44.484Z,-1.00
2023-05-10T11:50:12.973Z,-1.00
2023-05-10T11:52:41.335Z,-1.00
2023-05-10T11:55:09.824Z,-1.00
2023-05-10T11:57:39.821Z,-1.00
2023-05-10T12:00:08.923Z,-1.00
2023-05-10T12:02:37.529Z,-1.00
2023-05-10T12:05:07.098Z,-1.00
2023-05-10T12:07:36.153Z,-1.00
2023-05-10T12:10:04.660Z,-1.00
2023-05-10T12:12:44.751Z,-1.00
2023-05-10T12:15:24.568Z,-1.00
2023-05-10T12:17:54.648Z,-1.00
2023-05-10T12:20:25.171Z,-1.00
2023-05-10T12:23:00.580Z,-1.00
2023-05-10T12:25:40.384Z,-1.00
2023-05-10T12:28:11.154Z,-1.00
2023-05-10T12:30:40.453Z,-1.00
2023-05-10T12:33:12.281Z,-1.00
2023-05-10T12:35:49.462Z,-1.00
2023-05-10T12:38:27.026Z,-1.00
2023-05-10T12:40:55.671Z,-1.00
2023-05-10T12:43:24.310Z,-1.00
2023-05-10T12:45:55.670Z,-1.00
2023-05-10T12:48:32.748Z,-1.00
2023-05-10T12:51:02.947Z,-1.00
2023-05-10T12:53:32.199Z,-1.00
2023-05-10T12:56:00.749Z,-1.00
2023-05-10T12:58:35.462Z,-1.00
2023-05-10T13:01:06.723Z,-1.00
2023-05-10T13:03:35.183Z,-1.00
2023-05-10T13:06:03.819Z,-1.00
2023-05-10T13:08:34.784Z,-1.00
2023-05-10T13:11:07.593Z,-1.00
2023-05-10T13:13:38.901Z,-1.00
2023-05-10T13:16:07.922Z,-1.00
2023-05-10T13:18:37.150Z,-1.00
2023-05-10T13:21:06.740Z,-1.00
2023-05-10T13:23:35.803Z,-1.00
2023-05-10T13:26:04.456Z,-1.00
2023-05-10T13:31:11.727Z,99190.17
2023-05-10T13:33:40.253Z,99184.56
2023-05-10T13:36:08.912Z,99182.76
2023-05-10T13:38:38.764Z,99181.69
2023-05-10T13:41:13.538Z,99179.36
2023-05-10T13:43:42.049Z,99178.89
2023-05-10T13:46:10.707Z,99172.30
2023-05-10T13:48:39.309Z,99169.28
2023-05-10T13:51:07.724Z,99165.18
2023-05-10T13:53:36.180Z,99162.64
2023-05-10T13:56:05.019Z,99165.37
2023-05-10T13:58:34.987Z,99160.79
2023-05-10T14:01:03.524Z,99160.32
2023-05-10T14:03:33.746Z,99162.50
2023-05-10T14:06:02.790Z,99159.20
2023-05-10T14:08:31.462Z,99157.30
2023-05-10T14:11:01.089Z,99156.09
2023-05-10T14:13:29.790Z,99157.13
2023-05-10T14:15:59.879Z,99151.09
2023-05-10T14:18:29.605Z,99150.13
2023-05-10T14:20:59.174Z,99150.89
2023-05-10T14:23:29.999Z,99150.85
2023-05-10T14:25:58.727Z,99148.60
2023-05-10T14:28:27.526Z,99145.66
2023-05-10T14:30:56.007Z,99149.54
2023-05-10T14:33:24.667Z,99150.88
2023-05-10T14:35:58.500Z,99149.03
2023-05-10T14:38:27.758Z,99146.05
2023-05-10T14:40:57.242Z,99152.84
2023-05-10T14:43:26.177Z,99154.52
2023-05-10T14:45:57.622Z,99153.81
2023-05-10T14:48:26.424Z,99150.11
2023-05-10T14:50:54.808Z,99147.95
2023-05-10T14:53:23.247Z,99147.13
2023-05-10T14:55:51.940Z,99148.11
2023-05-10T14:58:20.845Z,99152.59
2023-05-10T15:00:50.075Z,99155.16
2023-05-10T15:03:22.426Z,99158.98
2023-05-10T15:05:53.352Z,99159.02
2023-05-10T15:08:21.875Z,99151.43
2023-05-10T15:10:50.213Z,99156.10
2023-05-10T15:13:18.841Z,99153.90
2023-05-10T15:15:47.327Z,99150.50
2023-05-10T15:18:15.964Z,99151.46
2023-05-10T15:20:45.786Z,99151.59
2023-05-10T15:23:14.313Z,99146.95
2023-05-10T15:25:42.872Z,99146.10
2023-05-10T15:28:11.454Z,99139.86
2023-05-10T15:30:39.814Z,99136.56
2023-05-10T15:33:08.992Z,99140.29
2023-05-10T15:35:39.357Z,99138.91
2023-05-10T15:38:08.384Z,99139.98
2023-05-10T15:40:36.850Z,99143.39
2023-05-10T15:43:06.564Z,99145.95
2023-05-10T15:45:37.483Z,99140.55
2023-05-10T15:48:10.289Z,99138.93
2023-05-10T15:50:38.761Z,99140.97
2023-05-10T15:53:07.152Z,99138.41
2023-05-10T15:55:35.902Z,99136.60
2023-05-10T15:58:06.653Z,99135.92
2023-05-10T16:00:35.124Z,99139.36
2023-05-10T16:03:04.198Z,99143.51
2023-05-10T16:05:33.848Z,99141.42
2023-05-10T16:08:02.547Z,99140.46
2023-05-10T16:10:34.297Z,99145.43
2023-05-10T16:13:05.230Z,99145.06
2023-05-10T16:15:34.218Z,99140.78
2023-05-10T16:18:02.998Z,99144.38
2023-05-10T16:20:33.257Z,99145.05
2023-05-10T16:23:05.871Z,99144.77
2023-05-10T16:25:34.295Z,99146.59
2023-05-10T16:28:02.850Z,99147.83
2023-05-10T16:30:31.317Z,99148.91
2023-05-10T16:33:01.639Z,99150.56
2023-05-10T16:35:30.352Z,99146.64
2023-05-10T16:37:58.710Z,99146.52
2023-05-10T16:40:27.104Z,99149.92
2023-05-10T16:42:55.594Z,99149.17
2023-05-10T16:45:24.253Z,99151.83
2023-05-10T16:47:54.159Z,99153.17
2023-05-10T16:50:22.729Z,99154.41
2023-05-10T16:52:51.008Z,99156.14
2023-05-10T16:55:19.747Z,99159.13
2023-05-10T16:57:49.722Z,99162.11
2023-05-10T17:00:18.205Z,99165.13
2023-05-10T17:02:47.058Z,99168.20
2023-05-10T17:05:16.152Z,99169.71
2023-05-10T17:07:44.807Z,99168.84
2023-05-10T17:10:13.333Z,99170.32
2023-05-10T17:12:41.771Z,99172.59
2023-05-10T17:15:10.602Z,99174.29
2023-05-10T17:17:39.131Z,99174.86
2023-05-10T17:20:08.474Z,99175.23
2023-05-10T17:22:36.855Z,99178.33
2023-05-10T17:25:08.211Z,99181.04
2023-05-10T17:27:36.573Z,99182.23
2023-05-10T17:30:06.040Z,99183.61
2023-05-10T17:32:34.582Z,99182.48
2023-05-10T17:35:05.366Z,99187.86
2023-05-10T17:37:33.879Z,99190.04
2023-05-10T17:40:03.828Z,99190.10
2023-05-10T17:42:32.926Z,99194.71
2023-05-10T17:45:01.376Z,99196.65
2023-05-10T17:47:29.906Z,99201.89
2023-05-10T17:49:58.322Z,99202.05
2023-05-10T17:52:26.969Z,99205.04
2023-05-10T17:54:55.649Z,99207.90
2023-05-10T17:57:27.505Z,99211.16
2023-05-10T17:59:56.013Z,99211.90
2023-05-10T18:02:24.354Z,99217.55
2023-05-10T18:04:52.887Z,99221.69
2023-05-10T18:07:23.837Z,99225.39
2023-05-10T18:09:52.194Z,99231.86
2023-05-10T18:12:20.555Z,99231.29
2023-05-10T18:14:48.973Z,99231.50
2023-05-10T18:17:18.165Z,99238.40
2023-05-10T18:19:46.509Z,99241.27
2023-05-10T18:22:14.936Z,99243.75
2023-05-10T18:24:43.308Z,99245.09
2023-05-10T18:27:12.091Z,99246.33
2023-05-10T18:29:40.386Z,99251.60
2023-05-10T18:32:08.642Z,99255.29
2023-05-10T18:34:37.494Z,99259.65
2023-05-10T18:37:08.016Z,99261.68
2023-05-10T18:39:37.718Z,99266.27
2023-05-10T18:42:06.272Z,99270.39
2023-05-10T18:44:34.759Z,99272.77
2023-05-10T18:47:03.255Z,99275.80
2023-05-10T18:49:32.196Z,99276.69
2023-05-10T18:52:01.112Z,99283.14
2023-05-10T18:54:30.347Z,99279.52
2023-05-10T18:56:59.002Z,99281.90
2023-05-10T18:59:28.292Z,99288.45
2023-05-10T19:01:57.710Z,99290.42
2023-05-10T19:04:26.344Z,99292.02
2023-05-10T19:06:56.088Z,99289.94
2023-05-10T19:09:26.832Z,99290.65
2023-05-10T19:11:55.454Z,99294.74
2023-05-10T19:14:25.593Z,99296.41
2023-05-10T19:16:54.678Z,99295.05
2023-05-10T19:19:23.274Z,99298.34
2023-05-10T19:21:52.378Z,99304.00
2023-05-10T19:24:24.974Z,99301.84
2023-05-10T19:26:54.391Z,99304.27
2023-05-10T19:29:23.523Z,99306.23
2023-05-10T19:31:53.083Z,99305.42
2023-05-10T19:34:21.946Z,99308.13
2023-05-10T19:36:50.689Z,99305.43
2023-05-10T19:39:19.825Z,99309.11
2023-05-10T19:41:50.477Z,99308.96
2023-05-10T19:44:19.011Z,99309.65
2023-05-10T19:46:47.460Z,99310.00
2023-05-10T19:49:17.390Z,99309.30
2023-05-10T19:51:45.932Z,99312.09
2023-05-10T19:54:14.224Z,99311.08
2023-05-10T19:56:42.581Z,99313.41
2023-05-10T19:59:10.888Z,99315.52
2023-05-10T20:01:39.316Z,99317.56
2023-05-10T20:04:07.838Z,99321.14
2023-05-10T20:06:36.856Z,99319.40
2023-05-10T20:09:05.113Z,99315.64
2023-05-10T20:11:34.250Z,99316.66
2023-05-10T20:14:04.721Z,99315.31
2023-05-10T20:16:32.983Z,99316.36
2023-05-10T20:19:01.640Z,99319.04
2023-05-10T20:21:30.063Z,99319.73
2023-05-10T20:23:58.299Z,99321.76
2023-05-10T20:26:26.741Z,99321.92
2023-05-10T20:28:55.108Z,99317.52
2023-05-10T20:31:23.403Z,99318.11
2023-05-10T20:33:51.670Z,99317.95
2023-05-10T20:36:20.090Z,99317.20
2023-05-10T20:38:48.217Z,99320.83
2023-05-10T20:41:16.541Z,99319.62
2023-05-10T20:43:44.856Z,99321.47
2023-05-10T20:46:13.280Z,99322.55
2023-05-10T20:48:41.636Z,99321.55
2023-05-10T20:51:10.102Z,99319.27
2023-05-10T20:53:40.501Z,99323.91
2023-05-10T20:56:08.811Z,99319.88
2023-05-10T20:58:37.034Z,99317.54
2023-05-10T21:01:05.339Z,99319.11
2023-05-10T21:03:33.726Z,99320.52
2023-05-10T21:06:02.077Z,99319.98
2023-05-10T21:08:30.274Z,99315.52
2023-05-10T21:10:59.496Z,99315.31
2023-05-10T21:13:27.731Z,99309.02
2023-05-10T21:15:56.293Z,99308.12
2023-05-10T21:18:26.093Z,99308.33
2023-05-10T21:20:54.521Z,99305.95
2023-05-10T21:23:22.789Z,99308.19
2023-05-10T21:25:51.140Z,99307.64
2023-05-10T21:28:19.422Z,99307.58
2023-05-10T21:30:48.000Z,99306.66
2023-05-10T21:33:16.419Z,99306.01
2023-05-10T21:35:44.794Z,99306.82
2023-05-10T21:38:13.056Z,99310.38
2023-05-10T21:40:41.598Z,99311.02
2023-05-10T21:43:11.331Z,99314.84
2023-05-10T21:45:39.933Z,99316.45
2023-05-10T21:48:09.062Z,99316.63
2023-05-10T21:50:37.316Z,99321.52
2023-05-10T21:53:05.795Z,99327.95
2023-05-10T21:55:34.368Z,99326.97
2023-05-10T21:58:02.646Z,99328.89
2023-05-10T22:00:32.742Z,99329.56
2023-05-10T22:03:02.645Z,99331.64
2023-05-10T22:05:31.023Z,99335.40
2023-05-10T22:07:59.297Z,99333.02
2023-05-10T22:10:27.747Z,99335.20
2023-05-10T22:12:55.920Z,99336.88
2023-05-10T22:15:24.125Z,99334.77
2023-05-10T22:17:52.924Z,99334.48
2023-05-10T22:20:21.235Z,99336.18
2023-05-10T22:22:49.386Z,99335.98
2023-05-10T22:25:17.936Z,99340.06
2023-05-10T22:27:46.215Z,99342.92
2023-05-10T22:30:14.626Z,99342.02
2023-05-10T22:32:43.021Z,99342.13
2023-05-10T22:35:11.588Z,99340.71
2023-05-10T22:37:39.898Z,99342.55
2023-05-10T22:40:08.901Z,99343.35
2023-05-10T22:42:37.262Z,99341.98
2023-05-10T22:45:06.096Z,99339.47
2023-05-10T22:47:34.677Z,99343.51
2023-05-10T22:50:05.867Z,99343.16
2023-05-10T22:52:34.265Z,99343.86
2023-05-10T22:55:02.585Z,99343.54
2023-05-10T22:57:31.302Z,99344.11
2023-05-10T22:59:59.914Z,99343.48
2023-05-10T23:02:28.205Z,99346.52
2023-05-10T23:04:56.722Z,99344.20
2023-05-10T23:07:25.148Z,99344.98
2023-05-10T23:09:53.321Z,99349.46
2023-05-10T23:12:21.457Z,99348.45
2023-05-10T23:14:50.754Z,99350.23
2023-05-10T23:17:18.994Z,99351.95
2023-05-10T23:19:47.188Z,99354.14
2023-05-10T23:22:15.540Z,99355.73
2023-05-10T23:24:43.755Z,99358.05
2023-05-10T23:27:12.064Z,99356.76
2023-05-10T23:29:40.290Z,99356.66
2023-05-10T23:32:08.610Z,99360.56
2023-05-10T23:34:36.951Z,99363.44
2023-05-10T23:37:06.336Z,59617.71
2023-05-10T23:39:34.928Z,-1.00
2023-05-10T23:42:03.336Z,-1.00
2023-05-10T23:44:31.778Z,-1.00
2023-05-10T23:47:00.045Z,-1.00
2023-05-10T23:49:28.387Z,-1.00
2023-05-10T23:51:56.598Z,-1.00
2023-05-10T23:54:24.800Z,-1.00
2023-05-10T23:56:53.499Z,-1.00
2023-05-10T23:59:21.811Z,-1.00
